Time;durP1;ratioP1;P1;durP2;ratioP2;P2;SDS_P1;SDS_P2;PMS_P1;PMS_P2;Temp;Humidity;BMP_temperature;BMP_pressure;BME280_temperature;BME280_humidity;BME280_pressure;Samples;Min_cycle;Max_cycle;Signal;HPM_P1;HPM_P2
2021/03/18 00:00:17;;;;;;;8.35;4.43;;;;;;;-0.46;81.85;101255.03;2090075;28;20086;-77
2021/03/18 00:01:19;;;;;;;6.97;4.05;;;;;;;-0.49;82.34;101252.38;2081249;28;20434;-77
2021/03/18 00:02:20;;;;;;;15.35;4.97;;;;;;;-0.53;82.30;101250.50;2081454;28;20436;-77
2021/03/18 00:03:25;;;;;;;8.73;4.20;;;;;;;-0.54;82.30;101249.66;2090179;28;20036;-78
2021/03/18 00:04:26;;;;;;;7.07;3.97;;;;;;;-0.65;82.39;101251.00;2081067;28;20026;-81
2021/03/18 00:05:26;;;;;;;9.13;4.60;;;;;;;-0.65;82.37;101253.56;2081212;28;20025;-80
2021/03/18 00:06:26;;;;;;;14.33;4.37;;;;;;;-0.73;82.64;101252.44;2089984;28;20103;-79
2021/03/18 00:07:26;;;;;;;8.23;4.40;;;;;;;-0.74;82.74;101250.69;2090027;28;20028;-79
2021/03/18 00:08:27;;;;;;;10.60;4.47;;;;;;;-0.79;82.91;101248.88;2090061;28;20105;-79
2021/03/18 00:09:28;;;;;;;9.60;4.53;;;;;;;-0.80;83.03;101248.81;2090062;28;20057;-78
2021/03/18 00:10:29;;;;;;;11.03;4.27;;;;;;;-0.83;83.02;101247.00;2090237;28;20367;-78
2021/03/18 00:11:29;;;;;;;8.82;5.13;;;;;;;-0.84;83.33;101250.38;2077286;28;20076;-76
2021/03/18 00:12:30;;;;;;;11.20;4.23;;;;;;;-0.87;83.60;101249.44;2073892;28;20040;-76
2021/03/18 00:13:31;;;;;;;8.67;4.37;;;;;;;-0.85;83.67;101247.78;2073877;28;20433;-77
2021/03/18 00:14:31;;;;;;;7.70;4.45;;;;;;;-0.82;83.52;101250.44;2073558;28;20030;-79
2021/03/18 00:15:32;;;;;;;6.60;4.57;;;;;;;-0.84;83.46;101250.38;2073641;28;20135;-78
2021/03/18 00:16:33;;;;;;;11.27;4.47;;;;;;;-0.88;83.63;101258.78;2073434;28;20108;-76
2021/03/18 00:17:33;;;;;;;8.97;4.60;;;;;;;-0.87;83.87;101249.44;2081991;28;20475;-77
2021/03/18 00:18:41;;;;;;;8.90;4.47;;;;;;;-0.87;83.94;101249.44;2089868;28;20025;-78
2021/03/18 00:19:41;;;;;;;11.45;4.25;;;;;;;-0.87;83.79;101255.41;2090068;28;20196;-78
2021/03/18 00:20:41;;;;;;;6.70;4.13;;;;;;;-0.84;83.63;101254.66;2089944;28;20016;-80
2021/03/18 00:21:42;;;;;;;10.20;5.27;;;;;;;-0.81;83.56;101249.63;2081170;28;20033;-76
2021/03/18 00:22:43;;;;;;;18.13;5.30;;;;;;;-0.83;83.65;101251.25;2081099;28;20028;-77
2021/03/18 00:23:44;;;;;;;6.97;4.60;;;;;;;-0.83;83.76;101247.00;2090073;28;20039;-76
2021/03/18 00:24:44;;;;;;;7.67;4.90;;;;;;;-0.79;83.70;101250.53;2081120;28;20029;-81
2021/03/18 00:25:44;;;;;;;7.90;4.57;;;;;;;-0.76;83.58;101253.22;2081079;28;20108;-79
2021/03/18 00:26:44;;;;;;;7.67;4.70;;;;;;;-0.77;83.65;101248.91;2080881;28;20067;-81
2021/03/18 00:27:46;;;;;;;12.83;5.33;;;;;;;-0.73;83.68;101248.19;2081114;28;20033;-81
2021/03/18 00:28:46;;;;;;;9.32;4.57;;;;;;;-0.68;83.82;101248.31;2089926;28;20207;-81
2021/03/18 00:29:47;;;;;;;7.37;4.33;;;;;;;-0.68;83.27;101246.66;2089489;28;20459;-82
2021/03/18 00:30:48;;;;;;;8.23;4.33;;;;;;;-0.67;82.96;101245.84;2089955;28;20036;-82
2021/03/18 00:31:48;;;;;;;9.85;4.63;;;;;;;-0.66;82.93;101250.13;2089761;28;20451;-81
2021/03/18 00:32:50;;;;;;;8.47;4.40;;;;;;;-0.63;82.65;101254.47;2089963;28;20078;-81
2021/03/18 00:33:51;;;;;;;12.15;5.78;;;;;;;-0.67;83.08;101248.41;2089719;28;20033;-81
2021/03/18 00:34:51;;;;;;;13.43;5.35;;;;;;;-0.65;83.15;101257.00;2080998;28;20070;-82
2021/03/18 00:35:52;;;;;;;10.57;4.63;;;;;;;-0.60;83.10;101249.47;2081008;28;20085;-82
2021/03/18 00:36:52;;;;;;;8.52;4.38;;;;;;;-0.59;82.62;101255.44;2089904;28;20262;-82
2021/03/18 00:37:53;;;;;;;11.50;4.70;;;;;;;-0.59;82.34;101253.78;2089827;28;20494;-80
2021/03/18 00:38:54;;;;;;;6.13;4.27;;;;;;;-0.53;81.97;101256.53;2089840;28;20524;-78
2021/03/18 00:39:55;;;;;;;9.43;4.60;;;;;;;-0.51;82.23;101254.88;2089502;28;20021;-82
2021/03/18 00:40:59;;;;;;;10.48;4.30;;;;;;;-0.47;82.07;101258.41;2089906;28;20391;-82
2021/03/18 00:42:00;;;;;;;7.55;4.18;;;;;;;-0.49;81.90;101248.09;2089721;28;20017;-82
2021/03/18 00:43:02;;;;;;;10.93;4.70;;;;;;;-0.47;81.99;101250.72;2089885;28;20013;-82
2021/03/18 00:44:04;;;;;;;10.02;4.40;;;;;;;-0.47;81.59;101245.59;2088965;28;20039;-81
2021/03/18 00:45:04;;;;;;;;;;;;;;;-0.51;81.71;101243.75;2090306;28;20025;-81
2021/03/18 00:46:05;;;;;;;6.97;4.20;;;;;;;-0.53;82.07;101248.84;2089634;28;19920;-81
2021/03/18 00:47:06;;;;;;;10.77;4.43;;;;;;;-0.52;82.01;101242.91;2089767;28;20024;-80
2021/03/18 00:48:08;;;;;;;6.85;3.80;;;;;;;-0.55;81.72;101231.69;2080828;28;20036;-79
2021/03/18 00:49:08;;;;;;;8.48;4.70;;;;;;;-0.56;81.91;101235.06;2081013;28;20022;-81
2021/03/18 00:50:10;;;;;;;9.90;4.07;;;;;;;-0.59;81.70;101238.41;2089610;28;20055;-81
2021/03/18 00:51:16;;;;;;;12.65;4.63;;;;;;;-0.63;81.82;101239.97;2089708;28;20497;-82
2021/03/18 00:52:16;;;;;;;8.77;4.22;;;;;;;-0.66;81.48;101234.78;2089723;28;20079;-81
2021/03/18 00:53:20;;;;;;;6.90;4.10;;;;;;;-0.70;81.34;101232.94;2089575;28;20079;-81
2021/03/18 00:54:20;;;;;;;7.55;4.32;;;;;;;-0.69;81.84;101231.25;2089713;28;20048;-82
2021/03/18 00:55:20;;;;;;;9.70;4.40;;;;;;;-0.71;81.78;101226.06;2089849;28;20029;-81
2021/03/18 00:56:22;;;;;;;10.33;4.20;;;;;;;-0.74;81.67;101219.97;2089650;28;20033;-81
2021/03/18 00:57:23;;;;;;;;;;;;;;;-0.77;81.65;101223.31;2090110;28;20472;-82
2021/03/18 00:58:23;;;;;;;9.55;4.28;;;;;;;-0.79;81.74;101212.16;2089724;28;19965;-79
2021/03/18 00:59:24;;;;;;;8.02;4.00;;;;;;;-0.83;81.76;101217.97;2089540;28;20090;-79
2021/03/18 01:00:31;;;;;;;8.70;4.60;;;;;;;-0.86;82.01;101213.63;2089644;28;20703;-80
2021/03/18 01:01:32;;;;;;;6.50;3.95;;;;;;;-0.87;82.26;101222.13;2089754;28;20029;-78
2021/03/18 01:02:32;;;;;;;10.17;4.63;;;;;;;-0.92;82.13;101216.00;2089546;28;20098;-79
2021/03/18 01:03:35;;;;;;;6.27;3.97;;;;;;;-1.00;82.14;101210.63;2089749;28;20025;-79
2021/03/18 01:04:35;;;;;;;9.63;4.07;;;;;;;-1.01;82.17;101206.31;2089610;28;20037;-79
2021/03/18 01:05:52;;;;;;;6.60;3.97;;;;;;;-1.08;82.45;101206.94;2080961;28;20025;-78
2021/03/18 01:06:52;;;;;;;9.50;3.70;;;;;;;-1.11;82.40;101211.94;2074580;28;20422;-78
2021/03/18 01:07:52;;;;;;;9.70;4.33;;;;;;;-1.18;82.73;101202.31;2080957;28;20099;-79
2021/03/18 01:08:55;;;;;;;6.30;4.00;;;;;;;-1.21;82.97;101204.78;2089734;28;20527;-79
2021/03/18 01:09:55;;;;;;;10.25;4.10;;;;;;;-1.26;83.12;101197.81;2089665;28;20021;-79
2021/03/18 01:11:04;;;;;;;7.60;4.10;;;;;;;-1.26;83.52;101202.94;2086028;28;20534;-79
2021/03/18 01:12:05;;;;;;;9.60;4.30;;;;;;;-1.33;83.56;101203.56;2073261;28;20034;-79
2021/03/18 01:13:06;;;;;;;7.47;4.07;;;;;;;-1.36;83.54;101208.56;2073261;28;20032;-80
2021/03/18 01:14:10;;;;;;;6.95;3.92;;;;;;;-1.40;83.71;101209.25;2073415;28;20030;-81
2021/03/18 01:15:12;;;;;;;8.88;4.30;;;;;;;-1.43;83.85;101211.72;2073125;28;20030;-81
2021/03/18 01:16:18;;;;;;;8.63;3.95;;;;;;;-1.45;84.22;101210.78;2073376;28;20472;-81
2021/03/18 01:17:19;;;;;;;7.65;4.00;;;;;;;-1.45;84.48;101210.78;2077629;28;20391;-81
2021/03/18 01:18:22;;;;;;;9.73;4.57;;;;;;;-1.51;84.57;101203.78;2089762;28;20031;-81
2021/03/18 01:19:23;;;;;;;6.63;4.10;;;;;;;-1.54;84.88;101207.91;2080418;28;20117;-81
2021/03/18 01:20:23;;;;;;;7.43;3.73;;;;;;;-1.59;84.78;101211.16;2080828;28;20213;-81
2021/03/18 01:21:30;;;;;;;6.77;4.67;;;;;;;-1.57;84.65;101212.09;2089616;28;20036;-80
2021/03/18 01:22:30;;;;;;;7.22;4.35;;;;;;;-1.63;84.82;101209.34;2089675;28;20029;-80
2021/03/18 01:23:31;;;;;;;7.80;4.53;;;;;;;-1.63;85.04;101218.66;2089500;28;20020;-81
2021/03/18 01:24:31;;;;;;;11.03;4.70;;;;;;;-1.66;84.60;101214.31;2089545;28;20469;-80
2021/03/18 01:25:31;;;;;;;12.00;4.40;;;;;;;-1.70;84.95;101211.59;2089564;28;20375;-80
2021/03/18 01:26:32;;;;;;;6.97;3.93;;;;;;;-1.75;85.26;101214.00;2089526;28;20024;-80
2021/03/18 01:27:32;;;;;;;10.93;4.15;;;;;;;-1.75;85.29;101217.41;2089332;28;20036;-81
2021/03/18 01:28:33;;;;;;;7.73;4.20;;;;;;;-1.76;85.16;101219.91;2080687;28;20033;-81
2021/03/18 01:29:33;;;;;;;12.90;4.20;;;;;;;-1.80;85.11;101221.50;2080357;28;20037;-81
2021/03/18 01:30:34;;;;;;;9.03;4.40;;;;;;;-1.79;85.03;101217.25;2089810;28;20043;-81
2021/03/18 01:31:35;;;;;;;6.73;4.30;;;;;;;-1.82;84.87;101214.59;2089508;28;20116;-81
2021/03/18 01:32:36;;;;;;;11.20;4.35;;;;;;;-1.84;84.63;101217.06;2089625;28;20025;-80
2021/03/18 01:33:37;;;;;;;6.97;4.10;;;;;;;-1.86;85.02;101222.94;2089353;28;20052;-80
2021/03/18 01:34:37;;;;;;;13.70;4.38;;;;;;;-1.85;85.30;101214.47;2089487;28;20103;-77
2021/03/18 01:35:38;;;;;;;9.67;4.10;;;;;;;-1.84;85.04;101213.66;2089281;28;20467;-77
2021/03/18 01:36:38;;;;;;;9.33;4.20;;;;;;;-1.83;85.17;101212.84;2089460;28;20027;-77
2021/03/18 01:37:39;;;;;;;11.77;4.90;;;;;;;-1.90;85.22;101220.25;2089503;28;20029;-77
2021/03/18 01:38:42;;;;;;;10.40;4.45;;;;;;;-1.96;85.24;101212.38;2089463;28;20104;-77
2021/03/18 01:39:42;;;;;;;7.97;4.40;;;;;;;-1.98;85.36;101214.00;2089129;28;20027;-83
2021/03/18 01:40:43;;;;;;;8.20;4.00;;;;;;;-2.00;85.42;101215.63;2089402;28;20442;-83
2021/03/18 01:41:43;;;;;;;7.95;4.72;;;;;;;-2.04;85.54;101212.09;2089446;28;20040;-80
2021/03/18 01:42:44;;;;;;;8.43;4.30;;;;;;;-2.05;85.53;101214.59;2089464;28;20390;-80
2021/03/18 01:43:45;;;;;;;6.63;3.77;;;;;;;-2.09;85.72;101216.16;2089468;28;20110;-81
2021/03/18 01:44:45;;;;;;;7.00;4.22;;;;;;;-2.14;85.87;101214.25;2089344;28;20076;-80
2021/03/18 01:45:45;;;;;;;4.53;3.60;;;;;;;-2.17;85.78;101209.91;2089393;28;20033;-81
2021/03/18 01:46:46;;;;;;;8.60;3.97;;;;;;;-2.21;86.04;101214.03;2089241;28;20308;-80
2021/03/18 01:47:49;;;;;;;9.40;3.90;;;;;;;-2.20;85.91;101209.78;2089400;28;20032;-80
2021/03/18 01:48:49;;;;;;;7.22;3.55;;;;;;;-2.24;85.98;101207.91;2089075;28;20028;-80
2021/03/18 01:49:49;;;;;;;6.50;3.97;;;;;;;-2.23;86.19;101209.66;2089114;28;20471;-80
2021/03/18 01:50:50;;;;;;;11.83;4.00;;;;;;;-2.24;85.71;101208.78;2089299;28;20483;-80
2021/03/18 01:51:51;;;;;;;8.13;3.70;;;;;;;-2.27;85.52;101210.38;2089524;28;20056;-80
2021/03/18 01:52:53;;;;;;;8.80;4.20;;;;;;;-2.29;85.37;101205.19;2089272;28;20032;-79
2021/03/18 01:53:53;;;;;;;7.00;4.20;;;;;;;-2.32;85.41;101199.97;2089099;28;20136;-80
2021/03/18 01:54:53;;;;;;;8.10;4.30;;;;;;;-2.36;85.58;101203.19;2089071;28;20013;-80
2021/03/18 01:55:55;;;;;;;10.47;3.77;;;;;;;-2.35;85.91;101207.50;2088623;28;20013;-82
2021/03/18 01:56:58;;;;;;;7.22;3.88;;;;;;;-2.36;86.18;101206.66;2089169;28;20017;-81
2021/03/18 01:57:58;;;;;;;9.30;4.32;;;;;;;-2.36;86.03;101203.19;2089435;28;20430;-82
2021/03/18 01:58:58;;;;;;;8.87;4.37;;;;;;;-2.36;85.95;101205.75;2089115;28;20146;-80
2021/03/18 02:00:00;;;;;;;9.20;4.00;;;;;;;-2.35;85.92;101215.16;2089054;28;20131;-80
2021/03/18 02:01:05;;;;;;;8.82;4.10;;;;;;;-2.36;85.94;101215.97;2089290;28;20028;-80
2021/03/18 02:02:05;;;;;;;11.10;4.40;;;;;;;-2.32;86.20;101214.41;2089287;28;20545;-80
2021/03/18 02:03:06;;;;;;;8.13;4.10;;;;;;;-2.35;86.21;101217.72;2089198;28;20025;-80
2021/03/18 02:04:06;;;;;;;9.43;4.13;;;;;;;-2.31;86.15;101213.59;2080496;28;20037;-80
2021/03/18 02:05:07;;;;;;;8.13;4.03;;;;;;;-2.29;86.34;101224.75;2080374;28;20041;-80
2021/03/18 02:06:08;;;;;;;7.95;4.15;;;;;;;-2.26;86.67;101225.72;2089167;28;20021;-80
2021/03/18 02:07:08;;;;;;;7.70;4.47;;;;;;;-2.29;86.65;101223.06;2089207;28;20115;-80
2021/03/18 02:08:09;;;;;;;10.38;4.40;;;;;;;-2.26;86.81;101218.06;2089348;28;20529;-79
2021/03/18 02:09:09;;;;;;;6.90;4.13;;;;;;;-2.26;86.87;101220.63;2088972;28;20072;-79
2021/03/18 02:10:10;;;;;;;9.37;4.47;;;;;;;-2.22;86.94;101216.50;2089249;28;20040;-80
2021/03/18 02:11:10;;;;;;;8.52;4.25;;;;;;;-2.26;86.79;101224.88;2081434;28;20541;-80
2021/03/18 02:12:11;;;;;;;8.77;4.70;;;;;;;-2.31;86.91;101216.16;2072971;28;20029;-80
2021/03/18 02:13:14;;;;;;;10.33;4.20;;;;;;;-2.32;87.04;101219.50;2072783;28;20062;-80
2021/03/18 02:14:14;;;;;;;7.88;3.97;;;;;;;-2.34;86.97;101216.91;2072940;28;20058;-80
2021/03/18 02:15:16;;;;;;;7.77;4.90;;;;;;;-2.30;86.79;101221.31;2072770;28;20053;-80
2021/03/18 02:16:16;;;;;;;10.13;4.47;;;;;;;-2.33;86.81;101218.66;2073140;28;20025;-80
2021/03/18 02:17:24;;;;;;;9.73;4.73;;;;;;;-2.27;86.72;101220.56;2076720;28;20384;-80
2021/03/18 02:18:36;;;;;;;11.23;4.63;;;;;;;-2.27;86.65;101226.53;2089378;28;20036;-80
2021/03/18 02:20:09;;;;;;;6.90;4.57;;;;;;;-2.27;86.58;101221.44;2088950;28;20033;-80
2021/03/18 02:21:36;;;;;;;6.65;3.95;;;;;;;-2.19;86.40;101234.50;2075951;28;20059;-78
2021/03/18 02:23:00;;;;;;;8.65;4.30;;;;;;;-2.11;86.73;101234.81;2089274;28;20025;-78
2021/03/18 02:24:36;;;;;;;11.30;4.95;;;;;;;-2.03;86.33;101234.28;2089125;28;20025;-77
2021/03/18 02:26:19;;;;;;;10.38;4.20;;;;;;;-1.98;85.94;101231.88;2089064;28;20507;-82
2021/03/18 02:27:25;;;;;;;8.95;4.63;;;;;;;-1.94;85.77;101236.31;2089195;28;20113;-80
2021/03/18 02:28:34;;;;;;;8.55;4.13;;;;;;;-1.88;85.47;101236.53;2089120;28;20037;-80
2021/03/18 02:30:11;;;;;;;6.50;4.35;;;;;;;-1.84;85.39;101231.53;2079965;28;20423;-79
2021/03/18 02:31:21;;;;;;;7.85;3.97;;;;;;;-1.81;85.18;101239.34;2085680;28;20021;-81
2021/03/18 02:32:59;;;;;;;8.85;3.92;;;;;;;-1.82;84.79;101235.03;2089068;28;20458;-77
2021/03/18 02:34:20;;;;;;;7.72;3.88;;;;;;;-1.78;84.67;101232.66;2089042;28;20100;-79
2021/03/18 02:35:45;;;;;;;8.82;4.28;;;;;;;-1.73;84.32;101237.94;2089268;28;20098;-79
2021/03/18 02:37:07;;;;;;;9.77;5.00;;;;;;;-1.73;84.09;101235.38;2089106;28;20095;-80
2021/03/18 02:38:18;;;;;;;7.68;3.78;;;;;;;-1.68;84.13;101235.53;2089089;28;20040;-77
2021/03/18 02:39:31;;;;;;;13.40;4.95;;;;;;;-1.59;83.78;101230.75;2089062;28;20067;-78
2021/03/18 02:40:36;;;;;;;9.30;4.05;;;;;;;-1.54;83.22;101228.38;2089140;28;20039;-78
2021/03/18 02:41:50;;;;;;;5.35;3.53;;;;;;;-1.51;83.18;101229.34;2089184;28;20104;-78
2021/03/18 02:43:00;;;;;;;4.78;3.42;;;;;;;-1.47;82.80;101235.44;2089136;28;20032;-77
2021/03/18 02:44:22;;;;;;;10.70;3.50;;;;;;;-1.45;82.95;101228.69;2089327;28;20100;-79
2021/03/18 02:45:28;;;;;;;7.38;3.65;;;;;;;-1.41;83.04;101227.97;2089339;28;20099;-78
2021/03/18 02:46:29;;;;;;;7.72;4.07;;;;;;;-1.38;82.97;101228.09;2089202;28;20044;-78
2021/03/18 02:47:33;;;;;;;9.30;3.75;;;;;;;-1.35;82.85;101228.19;2089373;28;20029;-78
2021/03/18 02:48:37;;;;;;;8.07;3.92;;;;;;;-1.32;82.83;101224.88;2080210;28;20030;-77
2021/03/18 02:49:44;;;;;;;11.00;4.13;;;;;;;-1.28;82.54;101227.59;2072233;28;20057;-77
2021/03/18 02:50:46;;;;;;;6.80;3.35;;;;;;;-1.27;82.39;101220.78;2081229;28;20021;-77
2021/03/18 02:51:47;;;;;;;7.40;3.50;;;;;;;-1.24;82.61;101223.44;2089317;28;20021;-77
2021/03/18 02:52:49;;;;;;;4.63;3.50;;;;;;;-1.22;82.56;101224.38;2089120;28;20561;-77
2021/03/18 02:53:50;;;;;;;8.70;3.60;;;;;;;-1.22;82.45;101226.94;2089265;28;20453;-77
2021/03/18 02:54:54;;;;;;;6.88;3.92;;;;;;;-1.22;82.30;101226.06;2089046;28;20021;-78
2021/03/18 02:55:56;;;;;;;9.50;4.10;;;;;;;-1.22;82.22;101231.16;2080268;28;20047;-77
2021/03/18 02:57:01;;;;;;;9.55;3.70;;;;;;;-1.22;82.53;101229.50;2080412;28;20017;-77
2021/03/18 02:58:04;;;;;;;9.98;3.83;;;;;;;-1.17;82.20;101230.50;2089470;28;20295;-77
2021/03/18 02:59:06;;;;;;;8.77;3.70;;;;;;;-1.16;82.31;101221.16;2088945;28;20029;-77
2021/03/18 03:00:10;;;;;;;7.35;3.58;;;;;;;-1.14;82.53;101232.31;2088996;28;20497;-77
2021/03/18 03:01:11;;;;;;;6.22;3.53;;;;;;;-1.14;82.77;101224.66;2080082;28;20047;-77
2021/03/18 03:02:15;;;;;;;8.68;3.92;;;;;;;-1.11;82.06;101224.72;2080312;28;20117;-77
2021/03/18 03:03:17;;;;;;;5.60;3.40;;;;;;;-1.13;81.96;101221.28;2088917;28;20063;-77
2021/03/18 03:04:19;;;;;;;6.60;3.38;;;;;;;-1.15;82.08;101222.91;2089030;28;20400;-77
2021/03/18 03:05:22;;;;;;;5.57;3.13;;;;;;;-1.17;82.00;101221.97;2089110;28;20029;-77
2021/03/18 03:06:24;;;;;;;7.40;3.33;;;;;;;-1.17;82.35;101220.28;2089026;28;20021;-77
2021/03/18 03:07:29;;;;;;;6.75;3.72;;;;;;;-1.15;81.94;101221.19;2090113;28;20024;-77
2021/03/18 03:08:30;;;;;;;7.63;3.70;;;;;;;-1.15;82.02;101222.91;2090722;28;20498;-78
2021/03/18 03:09:32;;;;;;;5.88;3.40;;;;;;;-1.18;82.32;101223.69;2090274;28;20037;-78
2021/03/18 03:10:34;;;;;;;6.20;3.85;;;;;;;-1.18;82.11;101227.91;2090774;28;20052;-78
2021/03/18 03:11:37;;;;;;;11.07;3.17;;;;;;;-1.23;82.48;101221.78;2076254;28;20061;-78
2021/03/18 03:12:38;;;;;;;12.93;3.92;;;;;;;-1.24;82.56;101226.00;2074138;28;20026;-79
2021/03/18 03:13:42;;;;;;;5.93;4.00;;;;;;;-1.21;82.72;101231.25;2074006;28;20384;-79
2021/03/18 03:14:46;;;;;;;5.15;3.55;;;;;;;-1.22;82.31;101221.81;2074144;28;20116;-79
2021/03/18 03:15:48;;;;;;;6.75;3.47;;;;;;;-1.19;82.27;101226.16;2073988;28;20100;-79
2021/03/18 03:16:49;;;;;;;8.40;4.10;;;;;;;-1.18;82.28;101222.78;2074073;28;20018;-79
2021/03/18 03:17:50;;;;;;;10.20;3.57;;;;;;;-1.15;82.19;101212.66;2086850;28;20402;-78
2021/03/18 03:18:51;;;;;;;10.85;4.82;;;;;;;-1.16;82.23;101221.16;2090398;28;20027;-78
2021/03/18 03:19:54;;;;;;;9.30;4.13;;;;;;;-1.13;81.96;101221.28;2090031;28;20056;-77
2021/03/18 03:20:57;;;;;;;8.35;3.60;;;;;;;-1.14;81.75;101222.94;2090543;28;20016;-76
2021/03/18 03:21:58;;;;;;;7.80;3.80;;;;;;;-1.12;81.69;101223.00;2090411;28;20031;-79
2021/03/18 03:23:02;;;;;;;7.70;3.60;;;;;;;-1.16;81.79;101218.59;2091085;28;20017;-79
2021/03/18 03:24:07;;;;;;;6.30;3.67;;;;;;;-1.18;82.04;101212.56;2081231;28;20045;-79
2021/03/18 03:25:11;;;;;;;8.30;3.80;;;;;;;-1.16;82.01;101214.34;2082351;28;20526;-79
2021/03/18 03:26:18;;;;;;;6.47;3.63;;;;;;;-1.15;81.90;101223.75;2090313;28;20448;-79
2021/03/18 03:27:19;;;;;;;6.05;3.80;;;;;;;-1.11;81.84;101224.72;2090601;28;20319;-79
2021/03/18 03:28:21;;;;;;;6.05;3.92;;;;;;;-1.12;81.81;101221.31;2090396;28;20025;-79
2021/03/18 03:29:22;;;;;;;10.20;3.60;;;;;;;-1.10;81.87;101221.34;2090291;28;20039;-79
2021/03/18 03:30:23;;;;;;;6.00;3.55;;;;;;;-1.07;81.92;101220.59;2090344;28;20047;-79
2021/03/18 03:31:24;;;;;;;6.68;3.53;;;;;;;-1.07;82.01;101221.47;2090433;28;20037;-78
2021/03/18 03:32:24;;;;;;;10.50;3.80;;;;;;;-1.07;81.86;101224.03;2090456;28;20194;-78
2021/03/18 03:33:25;;;;;;;5.90;3.70;;;;;;;-1.04;81.48;101215.59;2081529;28;20021;-80
2021/03/18 03:34:25;;;;;;;6.78;3.60;;;;;;;-1.02;81.27;101224.19;2081520;28;20068;-80
2021/03/18 03:35:26;;;;;;;6.28;3.47;;;;;;;-0.99;80.95;101214.91;2090489;28;20398;-80
2021/03/18 03:36:26;;;;;;;7.87;3.80;;;;;;;-0.96;80.86;101222.72;2090305;28;20029;-80
2021/03/18 03:37:26;;;;;;;6.53;3.77;;;;;;;-0.90;80.82;101224.59;2090275;28;20029;-80
2021/03/18 03:38:27;;;;;;;5.67;3.43;;;;;;;-0.86;80.31;101225.56;2090352;28;20033;-80
2021/03/18 03:39:28;;;;;;;9.02;3.53;;;;;;;-0.85;80.35;101225.63;2090197;28;20048;-80
2021/03/18 03:40:28;;;;;;;7.77;4.03;;;;;;;-0.85;80.40;101224.75;2081458;28;20484;-80
2021/03/18 03:41:28;;;;;;;7.87;3.57;;;;;;;-0.82;80.58;101227.41;2081481;28;20052;-81
2021/03/18 03:42:28;;;;;;;8.70;3.83;;;;;;;-0.81;80.82;101231.69;2090414;28;20397;-81
2021/03/18 03:43:29;;;;;;;8.10;4.13;;;;;;;-0.75;80.42;101233.59;2090254;28;20112;-81
2021/03/18 03:44:29;;;;;;;9.77;3.90;;;;;;;-0.73;80.02;101227.69;2090501;28;20118;-80
2021/03/18 03:45:30;;;;;;;6.77;3.43;;;;;;;-0.73;80.35;101230.25;2090098;28;20025;-80
2021/03/18 03:46:31;;;;;;;7.82;4.03;;;;;;;-0.69;80.10;101229.53;2090223;28;20108;-80
2021/03/18 03:47:31;;;;;;;12.02;3.90;;;;;;;-0.68;80.03;101223.59;2090153;28;20044;-80
2021/03/18 03:48:33;;;;;;;12.40;3.87;;;;;;;-0.66;79.65;101219.41;2081330;28;20055;-81
2021/03/18 03:49:34;;;;;;;5.25;3.60;;;;;;;-0.61;79.73;101221.22;2081279;28;20546;-81
2021/03/18 03:50:36;;;;;;;10.43;3.92;;;;;;;-0.59;79.75;101222.16;2090240;28;20032;-80
2021/03/18 03:51:55;;;;;;;;;;;;;;;-0.59;79.82;101220.50;2090644;28;20284;-82
2021/03/18 03:53:17;;;;;;;9.40;3.70;;;;;;;-0.56;79.39;101224.84;2090257;28;19909;-81
2021/03/18 03:54:20;;;;;;;8.32;3.70;;;;;;;-0.53;79.36;101223.22;2090294;28;20112;-80
2021/03/18 03:55:49;;;;;;;6.50;3.40;;;;;;;-0.51;79.08;101218.16;2090033;28;20025;-80
2021/03/18 03:57:02;;;;;;;6.78;3.53;;;;;;;-0.52;78.97;101227.53;2047897;29;20065;-81
2021/03/18 03:58:29;;;;;;;7.82;3.58;;;;;;;-0.53;79.23;101223.22;2066335;28;20033;-80
2021/03/18 03:59:34;;;;;;;7.10;3.67;;;;;;;-0.51;79.07;101220.72;2064714;28;20813;-78
2021/03/18 04:00:39;;;;;;;5.32;3.47;;;;;;;-0.50;78.83;101225.00;2065735;28;20034;-78
2021/03/18 04:01:51;;;;;;;7.22;3.92;;;;;;;-0.51;79.05;101226.72;2073647;28;20033;-76
2021/03/18 04:02:57;;;;;;;7.68;3.53;;;;;;;-0.50;78.93;101219.88;2073803;28;20026;-77
2021/03/18 04:04:25;;;;;;;13.05;3.63;;;;;;;-0.49;79.03;101221.63;2073814;28;20021;-77
2021/03/18 04:05:26;;;;;;;8.15;3.60;;;;;;;-0.47;78.88;101227.69;2070607;28;20116;-77
2021/03/18 04:06:29;;;;;;;7.35;3.72;;;;;;;-0.49;78.78;101221.63;2073621;28;20030;-77
2021/03/18 04:07:32;;;;;;;9.18;3.83;;;;;;;-0.47;78.90;101225.97;2073675;28;20061;-78
2021/03/18 04:08:36;;;;;;;6.25;3.72;;;;;;;-0.49;79.03;101221.63;2073766;28;20030;-78
2021/03/18 04:09:38;;;;;;;7.53;3.60;;;;;;;-0.47;78.57;101220.84;2073427;28;20389;-78
2021/03/18 04:10:43;;;;;;;12.40;4.10;;;;;;;-0.49;78.55;101222.50;2073661;28;20436;-78
2021/03/18 04:11:44;;;;;;;9.70;3.80;;;;;;;-0.51;78.93;101223.28;2072940;28;20088;-78
2021/03/18 04:12:46;;;;;;;7.82;4.05;;;;;;;-0.52;78.60;101221.53;2073022;28;20072;-78
2021/03/18 04:13:49;;;;;;;6.50;3.85;;;;;;;-0.52;78.66;101216.41;2073762;28;20030;-78
2021/03/18 04:14:54;;;;;;;6.32;3.75;;;;;;;-0.54;78.87;101216.38;2073665;28;20037;-78
2021/03/18 04:15:57;;;;;;;6.63;3.63;;;;;;;-0.54;79.04;101212.94;2073702;28;20080;-78
2021/03/18 04:17:04;;;;;;;5.78;3.85;;;;;;;-0.52;78.99;101216.41;2073634;28;20033;-78
2021/03/18 04:18:06;;;;;;;9.20;3.88;;;;;;;-0.50;78.87;101217.31;2073469;28;20030;-78
2021/03/18 04:19:09;;;;;;;7.18;3.70;;;;;;;-0.55;78.88;101208.66;2072866;28;20021;-78
2021/03/18 04:20:13;;;;;;;8.32;3.47;;;;;;;-0.55;79.09;101211.22;2073425;28;20052;-78
2021/03/18 04:21:14;;;;;;;5.30;3.65;;;;;;;-0.56;79.10;101209.47;2073573;28;20041;-78
2021/03/18 04:22:16;;;;;;;8.63;3.78;;;;;;;-0.58;79.21;101205.97;2073584;28;20127;-78
2021/03/18 04:23:17;;;;;;;7.15;4.03;;;;;;;-0.59;79.36;101211.91;2073648;28;20026;-78
2021/03/18 04:24:20;;;;;;;8.85;4.10;;;;;;;-0.63;79.38;101209.25;2073020;28;20389;-78
2021/03/18 04:25:22;;;;;;;12.35;4.97;;;;;;;-0.63;79.47;101205.84;2064909;28;20034;-78
2021/03/18 04:26:23;;;;;;;9.75;4.10;;;;;;;-0.65;79.83;101208.34;2065001;28;20053;-78
2021/03/18 04:27:23;;;;;;;7.05;4.50;;;;;;;-0.65;79.62;101210.91;2073681;28;20053;-78
2021/03/18 04:28:27;;;;;;;6.57;3.80;;;;;;;-0.66;79.61;101209.16;2073741;28;20369;-78
2021/03/18 04:29:30;;;;;;;6.22;3.65;;;;;;;-0.67;79.34;101207.44;2073415;28;20033;-78
2021/03/18 04:30:31;;;;;;;7.95;3.80;;;;;;;-0.69;79.74;101209.06;2073674;28;20053;-78
2021/03/18 04:31:35;;;;;;;9.43;3.90;;;;;;;-0.69;79.73;101203.94;2073641;28;20026;-78
2021/03/18 04:32:37;;;;;;;7.93;3.53;;;;;;;-0.69;79.71;101208.22;2073651;28;20030;-78
2021/03/18 04:33:39;;;;;;;8.70;3.70;;;;;;;-0.71;79.47;101208.13;2073510;28;20416;-78
2021/03/18 04:34:42;;;;;;;9.18;3.53;;;;;;;-0.70;79.11;101206.47;2073571;28;20277;-78
2021/03/18 04:35:43;;;;;;;9.65;3.72;;;;;;;-0.68;78.91;101209.91;2073591;28;20022;-78
2021/03/18 04:36:44;;;;;;;6.85;3.42;;;;;;;-0.73;79.10;101204.66;2073557;28;20377;-78
2021/03/18 04:37:45;;;;;;;6.45;3.40;;;;;;;-0.72;79.14;101208.97;2073487;28;20022;-78
2021/03/18 04:38:46;;;;;;;8.50;3.83;;;;;;;-0.72;78.54;101211.50;2064848;28;20124;-78
2021/03/18 04:39:47;;;;;;;5.07;3.53;;;;;;;-0.72;78.58;101208.97;2064517;28;20035;-79
2021/03/18 04:40:47;;;;;;;6.70;3.85;;;;;;;-0.75;78.46;101216.56;2073835;28;20132;-78
2021/03/18 04:41:48;;;;;;;7.07;3.83;;;;;;;-0.74;78.53;101214.84;2073482;28;20030;-78
2021/03/18 04:42:49;;;;;;;8.68;4.00;;;;;;;-0.71;78.31;101217.53;2073607;28;20315;-78
2021/03/18 04:43:51;;;;;;;10.18;4.10;;;;;;;-0.76;78.51;101225.06;2073387;28;20534;-78
2021/03/18 04:44:52;;;;;;;7.35;4.50;;;;;;;-0.77;78.52;101222.44;2073450;28;20099;-78
2021/03/18 04:45:54;;;;;;;;;;;;;;;-0.85;78.51;101217.94;2064929;28;20121;-78
2021/03/18 04:46:55;;;;;;;;;;;;;;;-0.88;78.76;101216.97;2065355;28;19910;-78
2021/03/18 04:47:56;;;;;;;7.25;4.07;;;;;;;-0.92;78.83;101210.00;2073354;28;19909;-78
2021/03/18 04:48:58;;;;;;;7.95;3.80;;;;;;;-0.98;78.96;101206.44;2073484;28;20090;-78
2021/03/18 04:49:59;;;;;;;5.47;3.80;;;;;;;-1.02;79.19;101207.13;2073205;28;20030;-78
2021/03/18 04:51:00;;;;;;;6.85;3.92;;;;;;;-1.09;79.43;101207.75;2073755;28;20025;-78
2021/03/18 04:52:01;;;;;;;5.85;3.70;;;;;;;-1.14;79.88;101214.41;2073591;28;20037;-78
2021/03/18 04:53:01;;;;;;;11.03;4.00;;;;;;;-1.21;80.06;101212.44;2073997;28;20049;-78
2021/03/18 04:54:03;;;;;;;6.63;3.87;;;;;;;-1.28;79.88;101207.13;2073300;28;20076;-78
2021/03/18 04:55:06;;;;;;;9.20;4.05;;;;;;;-1.37;80.27;101205.97;2073397;28;20820;-78